JST828 YSSY-YBBN
Flight info
| Callsign | JST828 |
|---|---|
| Flight time | 1h 12m |
| Altitude | 37000 |
| Route | OLSEM Y193 BANDA H252 BN |
| Aircraft | A320/M-SDE3FGHIRWY/LB1 |
Departure
| Time | 2026-04-30 05:28 |
|---|---|
| Airport | Sydney Kingsford Smith International Airport (YSSY) |
Arrival
| Time | 2026-04-30 06:41 |
|---|---|
| Airport | Brisbane International Airport (YBBN) |
| Time | Latitude | Longitude | Altitude | Speed | Heading |
|---|---|---|---|---|---|
| 2026-04-30 04:46 | -33.93524 | 151.17765 | 30 ft | 0 kts | 279° |
| 2026-04-30 05:09 | -33.93524 | 151.17766 | 30 ft | 0 kts | 279° |
| 2026-04-30 05:21 | -33.93527 | 151.17787 | 30 ft | 4 kts | 277° |
| 2026-04-30 05:21 | -33.93528 | 151.17819 | 30 ft | 4 kts | 256° |
| 2026-04-30 05:21 | -33.93518 | 151.17839 | 30 ft | 2 kts | 191° |
| 2026-04-30 05:21 | -33.93516 | 151.17839 | 30 ft | 0 kts | 190° |
| 2026-04-30 05:23 | -33.93517 | 151.17839 | 30 ft | 1 kts | 190° |
| 2026-04-30 05:23 | -33.93529 | 151.17837 | 30 ft | 3 kts | 190° |
| 2026-04-30 05:23 | -33.93557 | 151.17830 | 30 ft | 5 kts | 190° |
| 2026-04-30 05:24 | -33.93599 | 151.17822 | 30 ft | 7 kts | 189° |
| 2026-04-30 05:24 | -33.93657 | 151.17809 | 30 ft | 9 kts | 192° |
| 2026-04-30 05:24 | -33.93727 | 151.17789 | 30 ft | 12 kts | 193° |
| 2026-04-30 05:24 | -33.93813 | 151.17763 | 30 ft | 14 kts | 195° |
| 2026-04-30 05:25 | -33.93867 | 151.17667 | 29 ft | 16 kts | 253° |
| 2026-04-30 05:25 | -33.93899 | 151.17530 | 28 ft | 18 kts | 253° |
| 2026-04-30 05:25 | -33.93937 | 151.17371 | 26 ft | 21 kts | 255° |
| 2026-04-30 05:25 | -33.93977 | 151.17198 | 29 ft | 22 kts | 255° |
| 2026-04-30 05:26 | -33.94019 | 151.17015 | 30 ft | 23 kts | 254° |
| 2026-04-30 05:26 | -33.94067 | 151.16819 | 30 ft | 25 kts | 253° |
| 2026-04-30 05:26 | -33.94115 | 151.16606 | 30 ft | 27 kts | 255° |
| 2026-04-30 05:26 | -33.94163 | 151.16478 | 30 ft | 17 kts | 215° |
| 2026-04-30 05:27 | -33.94282 | 151.16497 | 27 ft | 20 kts | 165° |
| 2026-04-30 05:27 | -33.94323 | 151.16605 | 27 ft | 18 kts | 44° |
| 2026-04-30 05:27 | -33.94248 | 151.16887 | 28 ft | 66 kts | 75° |
| 2026-04-30 05:27 | -33.94070 | 151.17642 | 28 ft | 119 kts | 75° |
| 2026-04-30 05:28 | -33.93804 | 151.18763 | 82 ft | 154 kts | 73° |
| 2026-04-30 05:28 | -33.93526 | 151.19978 | 718 ft | 144 kts | 75° |
| 2026-04-30 05:28 | -33.93305 | 151.21120 | 1366 ft | 139 kts | 79° |
| 2026-04-30 05:28 | -33.93170 | 151.22278 | 1875 ft | 141 kts | 79° |
| 2026-04-30 05:29 | -33.93006 | 151.23515 | 2132 ft | 160 kts | 77° |
| 2026-04-30 05:29 | -33.92811 | 151.24917 | 2343 ft | 180 kts | 78° |
| 2026-04-30 05:29 | -33.92588 | 151.26505 | 2611 ft | 204 kts | 78° |
| 2026-04-30 05:29 | -33.92338 | 151.28269 | 2963 ft | 225 kts | 78° |
| 2026-04-30 05:30 | -33.92059 | 151.30218 | 3399 ft | 247 kts | 79° |
| 2026-04-30 05:30 | -33.91766 | 151.32281 | 4231 ft | 252 kts | 79° |
| 2026-04-30 05:30 | -33.91466 | 151.34376 | 5128 ft | 256 kts | 79° |
| 2026-04-30 05:30 | -33.91157 | 151.36511 | 5966 ft | 262 kts | 80° |
| 2026-04-30 05:31 | -33.90790 | 151.38645 | 6800 ft | 267 kts | 71° |
| 2026-04-30 05:31 | -33.89830 | 151.40598 | 7582 ft | 273 kts | 47° |
| 2026-04-30 05:31 | -33.88336 | 151.41978 | 8383 ft | 277 kts | 33° |
| 2026-04-30 05:31 | -33.86709 | 151.43242 | 9219 ft | 280 kts | 33° |
| 2026-04-30 05:32 | -33.85073 | 151.44526 | 10060 ft | 283 kts | 33° |
| 2026-04-30 05:32 | -33.83385 | 151.45857 | 10487 ft | 301 kts | 33° |
| 2026-04-30 05:32 | -33.81569 | 151.47289 | 10759 ft | 322 kts | 33° |
| 2026-04-30 05:32 | -33.79669 | 151.48791 | 11318 ft | 330 kts | 33° |
| 2026-04-30 05:33 | -33.77738 | 151.50314 | 11961 ft | 334 kts | 33° |
| 2026-04-30 05:33 | -33.75788 | 151.51848 | 12634 ft | 338 kts | 33° |
| 2026-04-30 05:33 | -33.73802 | 151.53411 | 13317 ft | 342 kts | 33° |
| 2026-04-30 05:33 | -33.71796 | 151.54988 | 13995 ft | 346 kts | 33° |
| 2026-04-30 05:34 | -33.69776 | 151.56574 | 14613 ft | 350 kts | 33° |
| 2026-04-30 05:34 | -33.67732 | 151.58184 | 15219 ft | 353 kts | 33° |
| 2026-04-30 05:34 | -33.65671 | 151.59811 | 15795 ft | 356 kts | 33° |
| 2026-04-30 05:34 | -33.63590 | 151.61449 | 16357 ft | 360 kts | 33° |
| 2026-04-30 05:35 | -33.61485 | 151.63105 | 16912 ft | 364 kts | 33° |
| 2026-04-30 05:35 | -33.59351 | 151.64782 | 17458 ft | 369 kts | 34° |
| 2026-04-30 05:35 | -33.57194 | 151.66474 | 18015 ft | 373 kts | 34° |
| 2026-04-30 05:35 | -33.55012 | 151.68185 | 18585 ft | 377 kts | 34° |
| 2026-04-30 05:36 | -33.52806 | 151.69913 | 19098 ft | 381 kts | 34° |
| 2026-04-30 05:36 | -33.50593 | 151.71611 | 19601 ft | 385 kts | 31° |
| 2026-04-30 05:36 | -33.48142 | 151.72947 | 20111 ft | 390 kts | 19° |
| 2026-04-30 05:36 | -33.45511 | 151.73838 | 20641 ft | 395 kts | 16° |
| 2026-04-30 05:37 | -33.42850 | 151.74694 | 21166 ft | 398 kts | 16° |
| 2026-04-30 05:37 | -33.40166 | 151.75560 | 21680 ft | 401 kts | 16° |
| 2026-04-30 05:37 | -33.37456 | 151.76435 | 22180 ft | 405 kts | 16° |
| 2026-04-30 05:37 | -33.34726 | 151.77318 | 22674 ft | 408 kts | 16° |
| 2026-04-30 05:38 | -33.31972 | 151.78213 | 23165 ft | 412 kts | 16° |
| 2026-04-30 05:38 | -33.29195 | 151.79113 | 23648 ft | 416 kts | 16° |
| 2026-04-30 05:38 | -33.26389 | 151.80019 | 24097 ft | 419 kts | 16° |
| 2026-04-30 05:38 | -33.23562 | 151.80930 | 24500 ft | 422 kts | 16° |
| 2026-04-30 05:39 | -33.20721 | 151.81843 | 24904 ft | 425 kts | 16° |
| 2026-04-30 05:39 | -33.17861 | 151.82761 | 25302 ft | 427 kts | 15° |
| 2026-04-30 05:39 | -33.14977 | 151.83684 | 25683 ft | 430 kts | 15° |
| 2026-04-30 05:39 | -33.12083 | 151.84613 | 26073 ft | 432 kts | 15° |
| 2026-04-30 05:40 | -33.09177 | 151.85551 | 26451 ft | 435 kts | 15° |
| 2026-04-30 05:40 | -33.06247 | 151.86496 | 26832 ft | 437 kts | 15° |
| 2026-04-30 05:40 | -33.03300 | 151.87442 | 27211 ft | 439 kts | 15° |
| 2026-04-30 05:40 | -33.00342 | 151.88387 | 27587 ft | 442 kts | 15° |
| 2026-04-30 05:41 | -32.97360 | 151.89341 | 27940 ft | 444 kts | 15° |
| 2026-04-30 05:41 | -32.94369 | 151.90301 | 28302 ft | 446 kts | 15° |
| 2026-04-30 05:41 | -32.91364 | 151.91265 | 28667 ft | 449 kts | 15° |
| 2026-04-30 05:41 | -32.88341 | 151.92234 | 29007 ft | 451 kts | 15° |
| 2026-04-30 05:42 | -32.85299 | 151.93211 | 29323 ft | 454 kts | 15° |
| 2026-04-30 05:42 | -32.82286 | 151.94177 | 29687 ft | 456 kts | 15° |
| 2026-04-30 05:42 | -32.79207 | 151.95161 | 30047 ft | 458 kts | 15° |
| 2026-04-30 05:42 | -32.76120 | 151.96142 | 30394 ft | 461 kts | 15° |
| 2026-04-30 05:43 | -32.73015 | 151.97127 | 30691 ft | 463 kts | 14° |
| 2026-04-30 05:43 | -32.69906 | 151.98115 | 30975 ft | 464 kts | 14° |
| 2026-04-30 05:43 | -32.66785 | 151.99107 | 31359 ft | 463 kts | 14° |
| 2026-04-30 05:43 | -32.63674 | 152.00097 | 31780 ft | 462 kts | 14° |
| 2026-04-30 05:44 | -32.60580 | 152.01082 | 32205 ft | 461 kts | 14° |
| 2026-04-30 05:44 | -32.57485 | 152.02067 | 32627 ft | 459 kts | 14° |
| 2026-04-30 05:44 | -32.54401 | 152.03045 | 33067 ft | 458 kts | 14° |
| 2026-04-30 05:44 | -32.51324 | 152.04021 | 33504 ft | 457 kts | 14° |
| 2026-04-30 05:45 | -32.48262 | 152.04994 | 33946 ft | 455 kts | 14° |
| 2026-04-30 05:45 | -32.45207 | 152.05962 | 34379 ft | 454 kts | 13° |
| 2026-04-30 05:45 | -32.42160 | 152.06924 | 34747 ft | 453 kts | 13° |
| 2026-04-30 05:45 | -32.39120 | 152.07884 | 35071 ft | 452 kts | 13° |
| 2026-04-30 05:46 | -32.36083 | 152.08844 | 35366 ft | 452 kts | 13° |
| 2026-04-30 05:46 | -32.33044 | 152.09804 | 35653 ft | 452 kts | 13° |
| 2026-04-30 05:46 | -32.30002 | 152.10766 | 35927 ft | 453 kts | 13° |
| 2026-04-30 05:46 | -32.26956 | 152.11729 | 36197 ft | 453 kts | 13° |
| 2026-04-30 05:47 | -32.23905 | 152.12691 | 36457 ft | 454 kts | 12° |
| 2026-04-30 05:47 | -32.20858 | 152.13651 | 36699 ft | 454 kts | 12° |
| 2026-04-30 05:47 | -32.17804 | 152.14615 | 36946 ft | 454 kts | 12° |
| 2026-04-30 05:47 | -32.14749 | 152.15575 | 37188 ft | 455 kts | 12° |
| 2026-04-30 05:48 | -32.11684 | 152.16535 | 37365 ft | 456 kts | 12° |
| 2026-04-30 05:48 | -32.08611 | 152.17496 | 37412 ft | 460 kts | 12° |
| 2026-04-30 05:48 | -32.02446 | 152.19422 | 37408 ft | 462 kts | 12° |
| 2026-04-30 05:49 | -31.96235 | 152.21369 | 37404 ft | 462 kts | 12° |
| 2026-04-30 05:49 | -31.90018 | 152.23319 | 37405 ft | 462 kts | 12° |
| 2026-04-30 05:50 | -31.83805 | 152.25265 | 37403 ft | 462 kts | 12° |
| 2026-04-30 05:50 | -31.77589 | 152.27204 | 37393 ft | 462 kts | 11° |
| 2026-04-30 05:51 | -31.71372 | 152.29139 | 37405 ft | 462 kts | 11° |
| 2026-04-30 05:51 | -31.65156 | 152.31077 | 37411 ft | 462 kts | 11° |
| 2026-04-30 05:52 | -31.58976 | 152.32997 | 37418 ft | 463 kts | 11° |
| 2026-04-30 05:52 | -31.52751 | 152.34922 | 37411 ft | 463 kts | 11° |
| 2026-04-30 05:53 | -31.46532 | 152.36859 | 37416 ft | 463 kts | 11° |
| 2026-04-30 05:53 | -31.40305 | 152.38785 | 37419 ft | 463 kts | 11° |
| 2026-04-30 05:54 | -31.34080 | 152.40707 | 37421 ft | 463 kts | 11° |
| 2026-04-30 05:54 | -31.27859 | 152.42630 | 37416 ft | 462 kts | 11° |
| 2026-04-30 05:55 | -31.21637 | 152.44546 | 37422 ft | 462 kts | 11° |
| 2026-04-30 05:55 | -31.15410 | 152.46449 | 37420 ft | 462 kts | 11° |
| 2026-04-30 05:56 | -31.09190 | 152.48366 | 37408 ft | 462 kts | 11° |
| 2026-04-30 05:56 | -31.03010 | 152.50272 | 37418 ft | 462 kts | 11° |
| 2026-04-30 05:57 | -30.96791 | 152.52169 | 37422 ft | 462 kts | 11° |
| 2026-04-30 05:57 | -30.90567 | 152.54072 | 37423 ft | 462 kts | 11° |
| 2026-04-30 05:58 | -30.84351 | 152.55976 | 37414 ft | 462 kts | 11° |
| 2026-04-30 05:58 | -30.79182 | 152.57563 | 37419 ft | 463 kts | 12° |
| 2026-04-30 05:59 | -30.73003 | 152.59706 | 37421 ft | 464 kts | 14° |
| 2026-04-30 05:59 | -30.66865 | 152.62028 | 37425 ft | 464 kts | 14° |
| 2026-04-30 06:00 | -30.60717 | 152.64329 | 37413 ft | 464 kts | 14° |
| 2026-04-30 06:00 | -30.54557 | 152.66559 | 37422 ft | 464 kts | 13° |
| 2026-04-30 06:01 | -30.48390 | 152.68764 | 37428 ft | 464 kts | 13° |
| 2026-04-30 06:01 | -30.42231 | 152.70981 | 37428 ft | 464 kts | 13° |
| 2026-04-30 06:02 | -30.36111 | 152.73193 | 37428 ft | 463 kts | 13° |
| 2026-04-30 06:02 | -30.29958 | 152.75407 | 37430 ft | 464 kts | 13° |
| 2026-04-30 06:03 | -30.23792 | 152.77616 | 37421 ft | 464 kts | 13° |
| 2026-04-30 06:03 | -30.17632 | 152.79838 | 37420 ft | 464 kts | 13° |
| 2026-04-30 06:04 | -30.11473 | 152.82058 | 37414 ft | 463 kts | 13° |
| 2026-04-30 06:05 | -30.02232 | 152.85359 | 37411 ft | 464 kts | 13° |
| 2026-04-30 06:05 | -29.96065 | 152.87561 | 37404 ft | 464 kts | 13° |
| 2026-04-30 06:06 | -29.89905 | 152.89755 | 37407 ft | 464 kts | 13° |
| 2026-04-30 06:06 | -29.83742 | 152.91952 | 37405 ft | 463 kts | 13° |
| 2026-04-30 06:07 | -29.77586 | 152.94145 | 37401 ft | 463 kts | 13° |
| 2026-04-30 06:07 | -29.71464 | 152.96322 | 37392 ft | 463 kts | 13° |
| 2026-04-30 06:08 | -29.65311 | 152.98515 | 37384 ft | 463 kts | 13° |
| 2026-04-30 06:08 | -29.59148 | 153.00693 | 37391 ft | 463 kts | 13° |
| 2026-04-30 06:09 | -29.52994 | 153.02872 | 37394 ft | 463 kts | 13° |
| 2026-04-30 06:09 | -29.46834 | 153.05049 | 37385 ft | 463 kts | 13° |
| 2026-04-30 06:10 | -29.40679 | 153.07226 | 37379 ft | 463 kts | 13° |
| 2026-04-30 06:10 | -29.34524 | 153.09390 | 37377 ft | 463 kts | 13° |
| 2026-04-30 06:11 | -29.28366 | 153.11556 | 37304 ft | 464 kts | 13° |
| 2026-04-30 06:11 | -29.25285 | 153.12641 | 36871 ft | 462 kts | 13° |
| 2026-04-30 06:11 | -29.22214 | 153.13727 | 36461 ft | 461 kts | 13° |
| 2026-04-30 06:11 | -29.19149 | 153.14810 | 36038 ft | 461 kts | 13° |
| 2026-04-30 06:12 | -29.16086 | 153.15890 | 35637 ft | 461 kts | 13° |
| 2026-04-30 06:12 | -29.13019 | 153.16969 | 35240 ft | 460 kts | 13° |
| 2026-04-30 06:12 | -29.09967 | 153.18041 | 34847 ft | 457 kts | 13° |
| 2026-04-30 06:12 | -29.06938 | 153.19105 | 34462 ft | 454 kts | 13° |
| 2026-04-30 06:13 | -29.03934 | 153.20157 | 34030 ft | 451 kts | 13° |
| 2026-04-30 06:13 | -29.00946 | 153.21204 | 33578 ft | 447 kts | 14° |
| 2026-04-30 06:13 | -28.97987 | 153.22240 | 33140 ft | 443 kts | 14° |
| 2026-04-30 06:13 | -28.95087 | 153.23257 | 32700 ft | 440 kts | 14° |
| 2026-04-30 06:14 | -28.92173 | 153.24277 | 32277 ft | 436 kts | 14° |
| 2026-04-30 06:14 | -28.89288 | 153.25286 | 31857 ft | 433 kts | 14° |
| 2026-04-30 06:14 | -28.86406 | 153.26295 | 31443 ft | 430 kts | 14° |
| 2026-04-30 06:14 | -28.83560 | 153.27293 | 31027 ft | 426 kts | 14° |
| 2026-04-30 06:15 | -28.80740 | 153.28281 | 30627 ft | 423 kts | 14° |
| 2026-04-30 06:15 | -28.77934 | 153.29260 | 30195 ft | 420 kts | 14° |
| 2026-04-30 06:15 | -28.75149 | 153.30225 | 29727 ft | 417 kts | 14° |
| 2026-04-30 06:15 | -28.72384 | 153.31183 | 29267 ft | 414 kts | 15° |
| 2026-04-30 06:16 | -28.69640 | 153.32137 | 28807 ft | 411 kts | 14° |
| 2026-04-30 06:16 | -28.66909 | 153.33090 | 28360 ft | 409 kts | 14° |
| 2026-04-30 06:16 | -28.64195 | 153.34041 | 27925 ft | 407 kts | 14° |
| 2026-04-30 06:16 | -28.61496 | 153.34984 | 27491 ft | 405 kts | 14° |
| 2026-04-30 06:17 | -28.58813 | 153.35918 | 27065 ft | 403 kts | 14° |
| 2026-04-30 06:17 | -28.56134 | 153.36848 | 26647 ft | 401 kts | 14° |
| 2026-04-30 06:17 | -28.53467 | 153.37772 | 26230 ft | 400 kts | 14° |
| 2026-04-30 06:17 | -28.50808 | 153.38692 | 25825 ft | 399 kts | 14° |
| 2026-04-30 06:18 | -28.48158 | 153.39609 | 25423 ft | 397 kts | 14° |
| 2026-04-30 06:18 | -28.45521 | 153.40522 | 25022 ft | 396 kts | 14° |
| 2026-04-30 06:18 | -28.42890 | 153.41432 | 24631 ft | 394 kts | 14° |
| 2026-04-30 06:18 | -28.40272 | 153.42339 | 24240 ft | 392 kts | 14° |
| 2026-04-30 06:19 | -28.37670 | 153.43238 | 23852 ft | 390 kts | 14° |
| 2026-04-30 06:19 | -28.35079 | 153.44135 | 23412 ft | 388 kts | 15° |
| 2026-04-30 06:19 | -28.32545 | 153.45011 | 23039 ft | 384 kts | 15° |
| 2026-04-30 06:19 | -28.30004 | 153.45888 | 22671 ft | 379 kts | 15° |
| 2026-04-30 06:20 | -28.27495 | 153.46755 | 22312 ft | 375 kts | 15° |
| 2026-04-30 06:20 | -28.25005 | 153.47614 | 21936 ft | 373 kts | 16° |
| 2026-04-30 06:20 | -28.22526 | 153.48467 | 21481 ft | 371 kts | 16° |
| 2026-04-30 06:20 | -28.20060 | 153.49315 | 21034 ft | 369 kts | 15° |
| 2026-04-30 06:21 | -28.17558 | 153.49888 | 20600 ft | 367 kts | 5° |
| 2026-04-30 06:21 | -28.15016 | 153.49928 | 20165 ft | 365 kts | 355° |
| 2026-04-30 06:21 | -28.12512 | 153.49498 | 19740 ft | 363 kts | 349° |
| 2026-04-30 06:21 | -28.10035 | 153.48980 | 19346 ft | 361 kts | 350° |
| 2026-04-30 06:22 | -28.07577 | 153.48468 | 18954 ft | 359 kts | 351° |
| 2026-04-30 06:22 | -28.05127 | 153.47961 | 18560 ft | 357 kts | 351° |
| 2026-04-30 06:22 | -28.02688 | 153.47460 | 18112 ft | 355 kts | 351° |
| 2026-04-30 06:22 | -28.00262 | 153.46959 | 17664 ft | 354 kts | 351° |
| 2026-04-30 06:23 | -27.97848 | 153.46460 | 17234 ft | 352 kts | 351° |
| 2026-04-30 06:23 | -27.95444 | 153.45966 | 16779 ft | 350 kts | 351° |
| 2026-04-30 06:23 | -27.93053 | 153.45476 | 16376 ft | 349 kts | 351° |
| 2026-04-30 06:23 | -27.90697 | 153.44992 | 15963 ft | 347 kts | 351° |
| 2026-04-30 06:24 | -27.88329 | 153.44504 | 15546 ft | 345 kts | 352° |
| 2026-04-30 06:24 | -27.85972 | 153.44018 | 15140 ft | 344 kts | 351° |
| 2026-04-30 06:24 | -27.83624 | 153.43532 | 14731 ft | 342 kts | 351° |
| 2026-04-30 06:24 | -27.81286 | 153.43047 | 14341 ft | 341 kts | 351° |
| 2026-04-30 06:25 | -27.78963 | 153.42564 | 13920 ft | 339 kts | 351° |
| 2026-04-30 06:25 | -27.76646 | 153.42081 | 13478 ft | 338 kts | 351° |
| 2026-04-30 06:25 | -27.74337 | 153.41600 | 13059 ft | 336 kts | 351° |
| 2026-04-30 06:25 | -27.72051 | 153.41127 | 12705 ft | 332 kts | 352° |
| 2026-04-30 06:26 | -27.69791 | 153.40663 | 12397 ft | 328 kts | 352° |
| 2026-04-30 06:26 | -27.67552 | 153.40207 | 12102 ft | 326 kts | 352° |
| 2026-04-30 06:26 | -27.65329 | 153.39756 | 11807 ft | 324 kts | 352° |
| 2026-04-30 06:26 | -27.63099 | 153.39489 | 11508 ft | 320 kts | 3° |
| 2026-04-30 06:27 | -27.60880 | 153.39587 | 11227 ft | 319 kts | 5° |
| 2026-04-30 06:27 | -27.58669 | 153.39693 | 10986 ft | 318 kts | 5° |
| 2026-04-30 06:27 | -27.56460 | 153.39797 | 10790 ft | 318 kts | 5° |
| 2026-04-30 06:27 | -27.54252 | 153.39897 | 10601 ft | 317 kts | 5° |
| 2026-04-30 06:28 | -27.52052 | 153.39996 | 10413 ft | 316 kts | 5° |
| 2026-04-30 06:28 | -27.49858 | 153.40093 | 10225 ft | 315 kts | 5° |
| 2026-04-30 06:28 | -27.47719 | 153.40188 | 10022 ft | 308 kts | 5° |
| 2026-04-30 06:28 | -27.45600 | 153.40281 | 9806 ft | 302 kts | 5° |
| 2026-04-30 06:29 | -27.43515 | 153.40374 | 9624 ft | 300 kts | 5° |
| 2026-04-30 06:29 | -27.41435 | 153.40469 | 9441 ft | 299 kts | 5° |
| 2026-04-30 06:29 | -27.39355 | 153.40568 | 9269 ft | 299 kts | 5° |
| 2026-04-30 06:29 | -27.37280 | 153.40667 | 9107 ft | 298 kts | 5° |
| 2026-04-30 06:30 | -27.35213 | 153.40762 | 9000 ft | 298 kts | 5° |
| 2026-04-30 06:30 | -27.33135 | 153.40857 | 9012 ft | 298 kts | 5° |
| 2026-04-30 06:30 | -27.31051 | 153.40952 | 8752 ft | 300 kts | 5° |
| 2026-04-30 06:30 | -27.28975 | 153.41045 | 8430 ft | 298 kts | 5° |
| 2026-04-30 06:31 | -27.26909 | 153.41138 | 8105 ft | 296 kts | 5° |
| 2026-04-30 06:31 | -27.24855 | 153.41230 | 7781 ft | 295 kts | 5° |
| 2026-04-30 06:31 | -27.22810 | 153.41321 | 7462 ft | 294 kts | 5° |
| 2026-04-30 06:31 | -27.20771 | 153.41228 | 7151 ft | 295 kts | 352° |
| 2026-04-30 06:32 | -27.18814 | 153.40517 | 6842 ft | 297 kts | 334° |
| 2026-04-30 06:32 | -27.17112 | 153.39219 | 6519 ft | 297 kts | 320° |
| 2026-04-30 06:32 | -27.15552 | 153.37744 | 6185 ft | 288 kts | 321° |
| 2026-04-30 06:32 | -27.14159 | 153.36187 | 5864 ft | 278 kts | 303° |
| 2026-04-30 06:33 | -27.13417 | 153.34244 | 5532 ft | 268 kts | 277° |
| 2026-04-30 06:33 | -27.13422 | 153.32231 | 5210 ft | 252 kts | 253° |
| 2026-04-30 06:33 | -27.14023 | 153.30462 | 4881 ft | 237 kts | 239° |
| 2026-04-30 06:33 | -27.14723 | 153.28821 | 4560 ft | 229 kts | 239° |
| 2026-04-30 06:34 | -27.15398 | 153.27225 | 4230 ft | 223 kts | 238° |
| 2026-04-30 06:34 | -27.16236 | 153.25852 | 4021 ft | 204 kts | 218° |
| 2026-04-30 06:34 | -27.17333 | 153.24947 | 4021 ft | 194 kts | 202° |
| 2026-04-30 06:34 | -27.18446 | 153.24279 | 4010 ft | 171 kts | 200° |
| 2026-04-30 06:35 | -27.19463 | 153.23695 | 3847 ft | 157 kts | 199° |
| 2026-04-30 06:35 | -27.20417 | 153.23152 | 3714 ft | 148 kts | 198° |
| 2026-04-30 06:35 | -27.21319 | 153.22640 | 3513 ft | 143 kts | 198° |
| 2026-04-30 06:35 | -27.22202 | 153.22138 | 3335 ft | 142 kts | 198° |
| 2026-04-30 06:36 | -27.23083 | 153.21637 | 3140 ft | 142 kts | 197° |
| 2026-04-30 06:36 | -27.23957 | 153.21140 | 2949 ft | 141 kts | 198° |
| 2026-04-30 06:36 | -27.24831 | 153.20642 | 2768 ft | 141 kts | 198° |
| 2026-04-30 06:36 | -27.25704 | 153.20144 | 2578 ft | 140 kts | 198° |
| 2026-04-30 06:37 | -27.26574 | 153.19648 | 2397 ft | 140 kts | 198° |
| 2026-04-30 06:37 | -27.27439 | 153.19155 | 2208 ft | 140 kts | 198° |
| 2026-04-30 06:37 | -27.28302 | 153.18663 | 2025 ft | 138 kts | 198° |
| 2026-04-30 06:37 | -27.29150 | 153.18179 | 1846 ft | 135 kts | 199° |
| 2026-04-30 06:38 | -27.29983 | 153.17704 | 1666 ft | 134 kts | 198° |
| 2026-04-30 06:38 | -27.30813 | 153.17231 | 1482 ft | 133 kts | 199° |
| 2026-04-30 06:38 | -27.31640 | 153.16759 | 1305 ft | 134 kts | 199° |
| 2026-04-30 06:38 | -27.32447 | 153.16298 | 1129 ft | 134 kts | 199° |
| 2026-04-30 06:39 | -27.33287 | 153.15805 | 966 ft | 133 kts | 200° |
| 2026-04-30 06:39 | -27.34097 | 153.15338 | 839 ft | 133 kts | 199° |
| 2026-04-30 06:39 | -27.34924 | 153.14881 | 609 ft | 133 kts | 202° |
| 2026-04-30 06:39 | -27.35754 | 153.14409 | 408 ft | 134 kts | 203° |
| 2026-04-30 06:40 | -27.36590 | 153.13934 | 265 ft | 136 kts | 204° |
| 2026-04-30 06:40 | -27.37429 | 153.13449 | 88 ft | 135 kts | 204° |
| 2026-04-30 06:40 | -27.38219 | 153.13007 | 23 ft | 110 kts | 206° |
| 2026-04-30 06:40 | -27.38771 | 153.12688 | 23 ft | 66 kts | 207° |
| 2026-04-30 06:41 | -27.38981 | 153.12502 | 20 ft | 28 kts | 236° |
| 2026-04-30 06:41 | -27.39038 | 153.12406 | 21 ft | 13 kts | 237° |
| 2026-04-30 06:41 | -27.39080 | 153.12335 | 21 ft | 9 kts | 237° |
| 2026-04-30 06:41 | -27.39118 | 153.12269 | 23 ft | 11 kts | 236° |
| 2026-04-30 06:42 | -27.39130 | 153.12182 | 21 ft | 13 kts | 297° |
| 2026-04-30 06:42 | -27.39045 | 153.12164 | 21 ft | 15 kts | 28° |
| 2026-04-30 06:42 | -27.38945 | 153.12220 | 21 ft | 17 kts | 23° |
| 2026-04-30 06:42 | -27.38845 | 153.12271 | 21 ft | 13 kts | 20° |
| 2026-04-30 06:43 | -27.38783 | 153.12211 | 21 ft | 14 kts | 285° |
| 2026-04-30 06:43 | -27.38756 | 153.12125 | 22 ft | 11 kts | 297° |
| 2026-04-30 06:43 | -27.38698 | 153.12081 | 21 ft | 11 kts | 337° |
| 2026-04-30 06:43 | -27.38654 | 153.12036 | 21 ft | 8 kts | 315° |
| 2026-04-30 06:44 | -27.38652 | 153.12034 | 21 ft | 0 kts | 315° |